Time;durP1;ratioP1;P1;durP2;ratioP2;P2;SDS_P1;SDS_P2;PMS_P1;PMS_P2;Temp;Humidity;BMP_temperature;BMP_pressure;BME280_temperature;BME280_humidity;BME280_pressure;Samples;Min_cycle;Max_cycle;Signal;HPM_P1;HPM_P2
2023/09/30 00:00:16;;;;;;;6.53;1.77;;;17.90;99.90;;;;;;6155769;28;20058;-79
2023/09/30 00:03:19;;;;;;;4.88;1.65;;;17.90;99.90;;;;;;6156570;28;20046;-79
2023/09/30 00:06:21;;;;;;;2.53;1.60;;;17.90;99.90;;;;;;6155625;28;20043;-79
2023/09/30 00:09:23;;;;;;;2.72;1.65;;;17.90;99.90;;;;;;6156316;28;20054;-78
2023/09/30 00:12:24;;;;;;;5.40;1.42;;;17.90;99.90;;;;;;6156195;29;20051;-79
2023/09/30 00:15:26;;;;;;;3.95;2.35;;;17.90;99.90;;;;;;6154918;28;20049;-79
2023/09/30 00:18:29;;;;;;;2.05;1.35;;;17.80;99.90;;;;;;6154326;28;20054;-79
2023/09/30 00:21:31;;;;;;;4.65;1.23;;;17.80;99.90;;;;;;6155862;28;20047;-79
2023/09/30 00:24:33;;;;;;;4.97;1.83;;;17.80;99.90;;;;;;6156173;29;20054;-79
2023/09/30 00:27:35;;;;;;;4.18;1.75;;;17.80;99.90;;;;;;6155878;28;20073;-79
2023/09/30 00:30:38;;;;;;;1.58;1.10;;;17.70;99.90;;;;;;6156560;28;20043;-79
2023/09/30 00:33:41;;;;;;;3.53;1.48;;;17.80;99.90;;;;;;6154249;28;20511;-79
2023/09/30 00:36:43;;;;;;;3.72;2.80;;;17.80;99.90;;;;;;6156517;29;20065;-78
2023/09/30 00:39:45;;;;;;;1.92;1.20;;;17.80;99.90;;;;;;6154681;28;20490;-79
2023/09/30 00:42:47;;;;;;;1.88;1.50;;;17.80;99.90;;;;;;6154172;28;20043;-79
2023/09/30 00:45:50;;;;;;;3.30;1.33;;;17.80;99.90;;;;;;6152990;28;20047;-78
2023/09/30 00:48:54;;;;;;;3.58;1.30;;;17.80;99.90;;;;;;6153758;28;20074;-78
2023/09/30 00:51:55;;;;;;;2.35;1.52;;;17.80;99.90;;;;;;6145656;29;20476;-79
2023/09/30 00:54:57;;;;;;;5.35;1.20;;;17.70;99.90;;;;;;6153145;28;20047;-78
2023/09/30 00:57:59;;;;;;;3.72;1.90;;;17.60;99.90;;;;;;6154984;28;20047;-79
2023/09/30 01:01:01;;;;;;;2.92;1.92;;;17.60;99.90;;;;;;6157552;28;20088;-79
2023/09/30 01:04:04;;;;;;;4.47;1.77;;;17.50;99.90;;;;;;6157791;29;20328;-79
2023/09/30 01:07:06;;;;;;;3.28;1.00;;;17.40;99.90;;;;;;6157477;28;20047;-79
2023/09/30 01:10:08;;;;;;;2.55;1.30;;;17.30;99.90;;;;;;6157202;28;20055;-79
2023/09/30 01:13:10;;;;;;;3.25;2.00;;;17.20;99.90;;;;;;6157227;28;20039;-79
2023/09/30 01:16:12;;;;;;;2.40;1.45;;;17.10;99.90;;;;;;6157631;29;20449;-79
2023/09/30 01:19:15;;;;;;;2.58;1.08;;;17.10;99.90;;;;;;6157362;28;20405;-80
2023/09/30 01:22:18;;;;;;;1.63;1.38;;;17.00;99.90;;;;;;6158064;28;20039;-80
2023/09/30 01:25:20;;;;;;;3.05;1.45;;;17.00;99.90;;;;;;6157180;28;20073;-79
2023/09/30 01:28:22;;;;;;;1.70;1.60;;;17.00;99.90;;;;;;6160931;28;20055;-79
2023/09/30 01:31:25;;;;;;;2.10;1.80;;;17.00;99.90;;;;;;6158847;28;20047;-78
2023/09/30 01:34:27;;;;;;;2.50;1.50;;;17.00;99.90;;;;;;6158007;28;20512;-79
2023/09/30 01:37:30;;;;;;;4.00;2.13;;;17.00;99.90;;;;;;6157257;28;20055;-79
2023/09/30 01:40:32;;;;;;;4.30;2.85;;;17.10;99.90;;;;;;6157580;28;20051;-78
2023/09/30 01:43:35;;;;;;;2.05;1.45;;;17.10;99.90;;;;;;6156933;28;20047;-79
2023/09/30 01:46:37;;;;;;;1.75;1.25;;;17.10;99.90;;;;;;6157132;28;20054;-78
2023/09/30 01:49:39;;;;;;;4.38;2.33;;;17.10;99.90;;;;;;6153714;28;20058;-79
2023/09/30 01:52:42;;;;;;;1.63;1.38;;;17.10;99.90;;;;;;6167419;28;20043;-79
2023/09/30 01:55:44;;;;;;;1.42;1.33;;;17.10;99.90;;;;;;6156353;28;20046;-79
2023/09/30 01:58:46;;;;;;;3.05;1.60;;;17.10;99.90;;;;;;6156044;28;20086;-79
2023/09/30 02:01:48;;;;;;;4.85;1.80;;;17.10;99.90;;;;;;6156293;28;20058;-79
2023/09/30 02:04:50;;;;;;;2.05;1.25;;;17.10;99.90;;;;;;6156161;29;20055;-79
2023/09/30 02:07:53;;;;;;;2.33;1.80;;;17.20;99.90;;;;;;6156246;28;20047;-79
2023/09/30 02:10:55;;;;;;;2.75;1.58;;;17.20;99.90;;;;;;6161744;28;20051;-77
2023/09/30 02:13:56;;;;;;;4.07;2.17;;;17.10;99.90;;;;;;6159299;28;20055;-79
2023/09/30 02:20:55;;;;;;;2.45;1.67;;;17.10;99.90;;;;;;6163581;28;20038;-79
2023/09/30 02:23:58;;;;;;;3.65;1.85;;;17.00;99.90;;;;;;6181354;28;20057;-79
2023/09/30 02:27:00;;;;;;;2.42;1.80;;;17.10;99.90;;;;;;6171935;28;20090;-79
2023/09/30 02:30:02;;;;;;;2.80;1.67;;;17.00;99.90;;;;;;6183538;28;20043;-79
2023/09/30 02:33:04;;;;;;;1.60;1.48;;;17.00;99.90;;;;;;6179773;28;20043;-79
2023/09/30 02:36:09;;;;;;;1.98;1.58;;;16.90;99.90;;;;;;6180026;28;20069;-79
2023/09/30 02:39:12;;;;;;;3.08;1.40;;;16.90;99.90;;;;;;6180637;28;20049;-79
2023/09/30 02:42:13;;;;;;;5.82;1.85;;;16.90;99.90;;;;;;6180863;28;20047;-79
2023/09/30 02:45:17;;;;;;;4.55;1.90;;;16.90;99.90;;;;;;6180115;28;20039;-79
2023/09/30 02:48:18;;;;;;;4.00;1.65;;;16.80;99.90;;;;;;6180402;28;20054;-79
2023/09/30 02:51:20;;;;;;;2.33;1.40;;;16.80;99.90;;;;;;6179746;28;20496;-79
2023/09/30 02:54:23;;;;;;;2.33;1.83;;;16.80;99.90;;;;;;6179484;28;20045;-79
2023/09/30 02:57:25;;;;;;;2.47;1.30;;;16.80;99.90;;;;;;6180202;28;20042;-79
2023/09/30 03:00:32;;;;;;;5.03;1.95;;;16.70;99.90;;;;;;6181337;28;20141;-79
2023/09/30 03:03:34;;;;;;;5.63;1.85;;;16.80;99.90;;;;;;6180239;28;20039;-79
2023/09/30 03:06:37;;;;;;;6.40;2.22;;;16.70;99.90;;;;;;6179852;28;20039;-79
2023/09/30 03:09:40;;;;;;;3.83;1.55;;;16.70;99.90;;;;;;6178983;28;20043;-79
2023/09/30 03:12:42;;;;;;;5.75;1.63;;;16.60;99.90;;;;;;6179408;28;20416;-80
2023/09/30 03:15:43;;;;;;;1.88;1.40;;;16.60;99.90;;;;;;6179780;28;20424;-79
2023/09/30 03:18:45;;;;;;;2.40;1.35;;;16.50;99.90;;;;;;6179582;28;20053;-79
2023/09/30 03:21:47;;;;;;;4.30;1.77;;;16.50;99.90;;;;;;6199632;22;20391;-78
2023/09/30 03:24:50;;;;;;;2.00;1.67;;;16.50;99.90;;;;;;6198902;28;20422;-78
2023/09/30 03:27:52;;;;;;;2.58;1.30;;;16.40;99.90;;;;;;6201559;28;20046;-79
2023/09/30 03:30:53;;;;;;;5.82;2.47;;;16.40;99.90;;;;;;6202752;28;20537;-79
2023/09/30 03:33:55;;;;;;;3.85;2.08;;;16.30;99.90;;;;;;6201981;28;20051;-78
2023/09/30 03:36:58;;;;;;;3.42;1.90;;;16.30;99.90;;;;;;6202987;28;20046;-78
2023/09/30 03:40:11;;;;;;;3.53;1.55;;;16.20;99.90;;;;;;6202507;28;20050;-78
2023/09/30 03:43:13;;;;;;;3.90;1.63;;;16.20;99.90;;;;;;6202789;28;20042;-78
2023/09/30 03:46:15;;;;;;;1.85;1.17;;;16.10;99.90;;;;;;6201961;28;20100;-78
2023/09/30 03:49:19;;;;;;;3.05;1.52;;;16.10;99.90;;;;;;6202679;28;20042;-78
2023/09/30 03:52:22;;;;;;;1.92;1.42;;;16.00;99.90;;;;;;6202052;28;20188;-78
2023/09/30 03:55:25;;;;;;;3.83;1.70;;;16.00;99.90;;;;;;6170755;28;20139;-78
2023/09/30 03:58:27;;;;;;;2.60;1.85;;;16.00;99.90;;;;;;6176971;28;20050;-78
2023/09/30 04:01:29;;;;;;;3.75;2.35;;;16.00;99.90;;;;;;6177846;28;20090;-79
2023/09/30 04:04:31;;;;;;;3.47;1.83;;;15.90;99.90;;;;;;6177493;28;20079;-79
2023/09/30 04:07:33;;;;;;;3.25;2.05;;;15.90;99.90;;;;;;6177608;28;20047;-78
2023/09/30 04:10:36;;;;;;;5.75;2.03;;;15.90;99.90;;;;;;6177135;28;20043;-79
2023/09/30 04:13:37;;;;;;;4.43;1.95;;;16.00;99.90;;;;;;6176847;28;20529;-79
2023/09/30 04:16:39;;;;;;;2.25;1.30;;;16.00;99.90;;;;;;6177998;28;20082;-79
2023/09/30 04:19:41;;;;;;;3.80;2.60;;;16.00;99.90;;;;;;6177404;28;20043;-78
2023/09/30 04:22:46;;;;;;;6.97;2.35;;;16.00;99.90;;;;;;6176956;28;20046;-79
2023/09/30 04:25:49;;;;;;;3.58;2.17;;;16.00;99.90;;;;;;6176767;28;20146;-78
2023/09/30 04:28:51;;;;;;;2.88;1.70;;;16.00;99.90;;;;;;6177930;28;20078;-78
2023/09/30 04:31:54;;;;;;;2.80;1.77;;;16.00;99.90;;;;;;6175770;28;20074;-78
2023/09/30 04:34:56;;;;;;;3.15;2.10;;;15.90;99.90;;;;;;6181420;28;20074;-78
2023/09/30 04:38:00;;;;;;;3.13;2.40;;;15.90;99.90;;;;;;6177439;28;20055;-79
2023/09/30 04:41:07;;;;;;;4.03;1.95;;;15.90;99.90;;;;;;6177062;28;20461;-78
2023/09/30 04:44:10;;;;;;;3.33;2.17;;;15.90;99.90;;;;;;6184449;28;20047;-77
2023/09/30 04:47:12;;;;;;;2.30;1.73;;;15.90;99.90;;;;;;6183909;28;20512;-78
2023/09/30 04:50:16;;;;;;;3.72;1.77;;;15.90;99.90;;;;;;6177097;28;20054;-78
2023/09/30 04:53:17;;;;;;;2.90;1.75;;;15.90;99.90;;;;;;6177798;28;20053;-79
2023/09/30 04:56:20;;;;;;;3.97;1.73;;;15.90;99.90;;;;;;6177781;28;20057;-79
2023/09/30 04:59:24;;;;;;;2.53;2.17;;;15.70;99.90;;;;;;6177417;28;20080;-79
2023/09/30 05:02:26;;;;;;;4.90;2.33;;;15.70;99.90;;;;;;6177318;28;20090;-78
2023/09/30 05:05:29;;;;;;;3.65;1.95;;;15.60;99.90;;;;;;6176037;28;20049;-79
2023/09/30 05:08:31;;;;;;;2.55;2.00;;;15.50;99.90;;;;;;6178112;28;20050;-79
2023/09/30 05:11:35;;;;;;;3.28;2.35;;;15.40;99.90;;;;;;6178094;28;20051;-80
2023/09/30 05:14:38;;;;;;;2.88;1.92;;;15.30;99.90;;;;;;6181436;28;20166;-80
2023/09/30 05:17:40;;;;;;;2.95;2.30;;;15.20;99.90;;;;;;6181823;28;20046;-78
2023/09/30 05:20:41;;;;;;;4.47;2.45;;;15.20;99.90;;;;;;6178645;28;20499;-79
2023/09/30 05:23:43;;;;;;;2.85;2.03;;;15.10;99.90;;;;;;6177510;28;20053;-79
2023/09/30 05:26:46;;;;;;;4.00;1.92;;;14.90;99.90;;;;;;6177581;28;20126;-79
2023/09/30 05:29:48;;;;;;;5.28;2.42;;;14.80;99.90;;;;;;6183460;28;20098;-79
2023/09/30 05:32:52;;;;;;;2.55;2.00;;;14.70;99.90;;;;;;6177512;28;20078;-79
2023/09/30 05:35:54;;;;;;;3.95;2.35;;;14.70;99.90;;;;;;6176757;28;20049;-79
2023/09/30 05:38:56;;;;;;;7.75;2.85;;;14.60;99.90;;;;;;6177021;28;20063;-79
2023/09/30 05:41:59;;;;;;;4.68;2.55;;;14.60;99.90;;;;;;6177302;28;20046;-79
2023/09/30 05:45:01;;;;;;;3.22;2.22;;;14.60;99.90;;;;;;6178700;28;20047;-78
2023/09/30 05:48:06;;;;;;;4.35;2.17;;;14.60;99.90;;;;;;6177271;28;20063;-79
2023/09/30 05:51:07;;;;;;;4.63;2.65;;;14.50;99.90;;;;;;6180701;28;20050;-79
2023/09/30 05:54:10;;;;;;;5.55;2.50;;;14.40;99.90;;;;;;6172407;28;20043;-79
2023/09/30 05:57:14;;;;;;;4.03;2.33;;;14.40;99.90;;;;;;6180628;28;20496;-79
2023/09/30 06:00:20;;;;;;;4.78;2.92;;;14.40;99.90;;;;;;6182297;28;20067;-79
2023/09/30 06:03:22;;;;;;;5.75;2.28;;;14.40;99.90;;;;;;6181454;28;20054;-80
2023/09/30 06:06:24;;;;;;;4.70;2.88;;;14.50;99.90;;;;;;6181991;28;20057;-79
2023/09/30 06:09:27;;;;;;;4.20;3.10;;;14.50;99.90;;;;;;6181200;28;20053;-79
2023/09/30 06:12:32;;;;;;;6.07;3.20;;;14.70;99.90;;;;;;6181957;28;20075;-79
2023/09/30 06:15:33;;;;;;;5.30;3.15;;;14.70;99.90;;;;;;6180815;28;20039;-79
2023/09/30 06:18:35;;;;;;;5.68;3.97;;;14.80;99.90;;;;;;6180766;28;20504;-79
2023/09/30 06:21:39;;;;;;;5.75;3.08;;;14.90;99.90;;;;;;6179982;28;20415;-78
2023/09/30 06:24:40;;;;;;;5.18;3.65;;;15.00;99.90;;;;;;6180696;28;20047;-80
2023/09/30 06:27:44;;;;;;;5.80;2.72;;;15.10;99.90;;;;;;6180086;28;20074;-80
2023/09/30 06:30:46;;;;;;;6.72;3.47;;;15.30;99.90;;;;;;6179919;28;20053;-79
2023/09/30 06:33:48;;;;;;;6.63;3.92;;;15.50;99.90;;;;;;6181000;28;20070;-79
2023/09/30 06:36:49;;;;;;;4.45;3.10;;;15.70;99.90;;;;;;6180981;28;20049;-79
2023/09/30 06:39:51;;;;;;;9.85;3.47;;;15.90;99.90;;;;;;6180038;28;20043;-79
2023/09/30 06:42:54;;;;;;;4.70;3.35;;;16.10;99.90;;;;;;6180774;28;20053;-80
2023/09/30 06:45:56;;;;;;;6.53;4.22;;;16.20;99.90;;;;;;6180644;28;20057;-79
2023/09/30 06:48:58;;;;;;;4.82;3.17;;;16.30;99.90;;;;;;6180133;28;20054;-78
2023/09/30 06:51:59;;;;;;;4.60;3.08;;;16.40;99.90;;;;;;6180284;28;20055;-79
2023/09/30 06:55:01;;;;;;;6.55;4.00;;;16.50;99.90;;;;;;6178633;28;20118;-79
2023/09/30 06:58:07;;;;;;;6.20;3.90;;;16.50;99.90;;;;;;6179529;28;20065;-79
2023/09/30 07:01:08;;;;;;;6.75;3.65;;;16.60;99.90;;;;;;6180588;28;20173;-79
2023/09/30 07:04:11;;;;;;;11.50;4.97;;;16.70;99.90;;;;;;6179992;28;20065;-78
2023/09/30 07:07:13;;;;;;;3.65;3.20;;;16.80;99.90;;;;;;6179915;28;20058;-80
2023/09/30 07:10:15;;;;;;;7.05;4.15;;;17.00;99.90;;;;;;6179301;28;20050;-79
2023/09/30 07:13:18;;;;;;;8.27;3.65;;;17.30;99.90;;;;;;6179179;28;20042;-80
2023/09/30 07:16:20;;;;;;;8.90;4.05;;;17.60;99.90;;;;;;6179260;28;20046;-79
2023/09/30 07:19:22;;;;;;;6.22;4.05;;;18.00;99.90;;;;;;6179994;28;20034;-79
2023/09/30 07:22:24;;;;;;;7.60;3.78;;;18.30;99.90;;;;;;6179205;28;20057;-79
2023/09/30 07:25:25;;;;;;;4.50;3.05;;;18.60;99.90;;;;;;6179248;28;20054;-80
2023/09/30 07:28:28;;;;;;;4.40;2.72;;;18.80;99.90;;;;;;6180298;28;20066;-79
2023/09/30 07:31:34;;;;;;;4.90;3.17;;;19.10;99.90;;;;;;6178255;28;20138;-79
2023/09/30 07:34:36;;;;;;;6.40;3.42;;;19.30;99.90;;;;;;6180919;28;20043;-79
2023/09/30 07:37:37;;;;;;;6.60;4.32;;;19.60;99.90;;;;;;6178423;28;20042;-78
2023/09/30 07:40:39;;;;;;;7.75;4.28;;;20.00;99.90;;;;;;6181082;28;20065;-79
2023/09/30 07:43:42;;;;;;;8.82;3.42;;;20.30;99.90;;;;;;6179509;28;20413;-79
2023/09/30 07:46:44;;;;;;;14.45;4.05;;;20.40;99.90;;;;;;6181504;28;20059;-78
2023/09/30 07:49:46;;;;;;;8.95;4.75;;;20.60;99.90;;;;;;6176956;28;20042;-78
2023/09/30 07:52:48;;;;;;;6.75;4.45;;;20.80;99.90;;;;;;6177590;28;20408;-78
2023/09/30 07:55:50;;;;;;;7.68;3.90;;;21.10;99.90;;;;;;6178200;28;20054;-79
2023/09/30 07:58:53;;;;;;;5.32;4.03;;;21.60;99.90;;;;;;6177300;28;20511;-79
2023/09/30 08:01:56;;;;;;;6.25;3.60;;;21.90;99.90;;;;;;6183148;28;20046;-78
2023/09/30 08:04:59;;;;;;;8.48;6.10;;;22.10;99.90;;;;;;6179402;28;20046;-79
2023/09/30 08:08:02;;;;;;;5.65;3.60;;;22.30;99.20;;;;;;6176800;28;20051;-78
2023/09/30 08:11:04;;;;;;;9.25;3.88;;;22.60;98.30;;;;;;6178949;28;20131;-76
2023/09/30 08:14:09;;;;;;;8.35;3.72;;;22.80;97.30;;;;;;6180139;28;20133;-79
2023/09/30 08:17:11;;;;;;;7.50;4.43;;;23.10;96.50;;;;;;6179935;28;20432;-79
2023/09/30 08:20:13;;;;;;;4.72;3.63;;;23.20;95.60;;;;;;6179991;28;20062;-79
2023/09/30 08:23:15;;;;;;;7.75;3.42;;;23.40;94.90;;;;;;6178360;28;20133;-79
2023/09/30 08:26:16;;;;;;;7.00;3.33;;;23.50;94.10;;;;;;6179185;28;20058;-76
2023/09/30 08:29:19;;;;;;;9.02;4.35;;;23.80;93.70;;;;;;6179222;28;20053;-79
2023/09/30 08:32:21;;;;;;;8.82;5.05;;;24.00;92.80;;;;;;6179561;28;20500;-79
2023/09/30 08:35:23;;;;;;;8.70;5.30;;;24.10;92.30;;;;;;6179020;28;20050;-77
2023/09/30 08:38:26;;;;;;;9.48;3.67;;;24.10;91.90;;;;;;6178908;28;20476;-79
2023/09/30 08:41:32;;;;;;;7.90;3.60;;;24.10;91.50;;;;;;6178359;28;20046;-79
2023/09/30 08:44:36;;;;;;;4.57;3.95;;;24.30;91.20;;;;;;6178574;28;20083;-78
2023/09/30 08:47:38;;;;;;;8.68;3.45;;;24.60;90.60;;;;;;6179567;28;20065;-79
2023/09/30 08:50:42;;;;;;;10.75;3.95;;;24.80;90.10;;;;;;6178566;28;20061;-80
2023/09/30 08:53:45;;;;;;;6.28;4.25;;;25.00;89.20;;;;;;6178393;28;20053;-79
2023/09/30 08:56:50;;;;;;;9.48;3.38;;;25.20;87.80;;;;;;6178662;28;20046;-79
2023/09/30 08:59:54;;;;;;;5.72;2.63;;;25.40;86.30;;;;;;6173998;28;20038;-79
2023/09/30 09:02:56;;;;;;;5.18;3.35;;;25.70;85.40;;;;;;6176619;28;20051;-80
2023/09/30 09:05:59;;;;;;;4.65;2.67;;;26.00;83.60;;;;;;6178869;28;20051;-79
2023/09/30 09:09:14;;;;;;;8.18;2.95;;;26.00;82.50;;;;;;6178397;28;20047;-80
2023/09/30 09:12:20;;;;;;;4.70;3.47;;;26.30;81.80;;;;;;6176574;28;20054;-79
2023/09/30 09:15:25;;;;;;;4.10;2.70;;;26.50;79.90;;;;;;6168645;28;20047;-77
2023/09/30 09:18:33;;;;;;;5.22;2.35;;;26.50;78.90;;;;;;6178741;28;20080;-79
2023/09/30 09:21:35;;;;;;;6.85;2.75;;;26.60;77.60;;;;;;6181636;28;20043;-77
2023/09/30 09:24:38;;;;;;;9.15;2.80;;;26.50;76.90;;;;;;6182121;28;20070;-77
2023/09/30 09:27:40;;;;;;;5.35;2.78;;;26.60;76.50;;;;;;6181008;28;20419;-78
2023/09/30 09:30:43;;;;;;;5.18;2.95;;;26.40;75.40;;;;;;6179433;28;20062;-77
2023/09/30 09:33:45;;;;;;;4.50;2.90;;;26.10;75.70;;;;;;6180777;28;20078;-78
2023/09/30 09:36:49;;;;;;;6.30;3.58;;;26.30;75.60;;;;;;6179597;28;20046;-78
2023/09/30 09:39:52;;;;;;;5.28;2.40;;;26.40;74.30;;;;;;6181061;28;20106;-78
2023/09/30 09:42:55;;;;;;;4.63;2.35;;;26.20;74.10;;;;;;6190456;28;20039;-78
2023/09/30 09:46:03;;;;;;;4.45;2.70;;;25.90;74.40;;;;;;6178550;28;20516;-78
2023/09/30 09:49:05;;;;;;;4.65;1.75;;;25.70;74.20;;;;;;6180707;28;20050;-79
2023/09/30 09:52:07;;;;;;;8.60;2.33;;;25.50;74.40;;;;;;6180781;28;20098;-77
2023/09/30 09:55:11;;;;;;;2.85;2.22;;;25.50;74.30;;;;;;6181443;28;20102;-77
2023/09/30 09:58:14;;;;;;;4.65;2.50;;;25.40;74.30;;;;;;6179379;28;20050;-77
2023/09/30 10:01:18;;;;;;;6.15;2.90;;;25.40;74.30;;;;;;6179316;28;20134;-78
2023/09/30 10:04:20;;;;;;;2.95;2.13;;;25.40;74.30;;;;;;6178265;28;20051;-78
2023/09/30 10:07:26;;;;;;;4.10;1.90;;;25.20;74.20;;;;;;6186382;28;20043;-79
2023/09/30 10:10:28;;;;;;;3.25;2.10;;;25.00;74.60;;;;;;6171768;28;20047;-77
2023/09/30 10:13:52;;;;;;;5.82;2.45;;;25.20;74.80;;;;;;6173393;28;20455;-79
2023/09/30 10:16:55;;;;;;;4.97;2.13;;;25.30;74.00;;;;;;6180412;28;20527;-78
2023/09/30 10:20:07;;;;;;;6.95;2.47;;;25.60;73.70;;;;;;6178235;28;21970;-78
2023/09/30 10:23:24;;;;;;;7.40;2.90;;;26.00;73.30;;;;;;6177891;28;20086;-78
2023/09/30 10:26:26;;;;;;;4.25;2.30;;;26.40;72.30;;;;;;6169437;28;20511;-78
2023/09/30 10:29:40;;;;;;;5.47;3.17;;;26.70;71.50;;;;;;6175618;28;20046;-78
2023/09/30 10:33:15;;;;;;;4.00;2.22;;;27.00;71.20;;;;;;6176305;28;20142;-77
2023/09/30 10:36:30;;;;;;;6.80;2.20;;;27.30;70.60;;;;;;6178357;28;20047;-78
2023/09/30 10:39:54;;;;;;;3.47;2.40;;;27.60;70.00;;;;;;6171629;28;20101;-78
2023/09/30 10:42:57;;;;;;;6.30;3.25;;;28.00;69.30;;;;;;6177100;28;20049;-78
2023/09/30 10:45:59;;;;;;;5.20;3.55;;;28.30;68.20;;;;;;6178300;28;20678;-78
2023/09/30 10:49:18;;;;;;;7.13;2.00;;;28.60;67.40;;;;;;6176813;28;20055;-78
2023/09/30 10:52:23;;;;;;;3.58;1.70;;;28.80;66.60;;;;;;6178293;28;20050;-78
2023/09/30 10:55:27;;;;;;;6.55;2.58;;;28.80;65.50;;;;;;6173794;28;20433;-77
2023/09/30 10:58:40;;;;;;;3.10;2.42;;;28.60;65.90;;;;;;6177348;28;20047;-77
2023/09/30 11:01:42;;;;;;;4.05;2.28;;;28.60;65.50;;;;;;6177584;28;20069;-77
2023/09/30 11:04:49;;;;;;;3.75;2.17;;;28.70;65.40;;;;;;6178859;28;20065;-77
2023/09/30 11:07:53;;;;;;;8.45;2.65;;;28.90;64.50;;;;;;6178984;28;20521;-77
2023/09/30 11:10:55;;;;;;;5.47;2.13;;;29.00;64.40;;;;;;6179615;28;20042;-76
2023/09/30 11:13:56;;;;;;;5.05;2.17;;;29.10;63.60;;;;;;6181933;28;20086;-77
2023/09/30 11:17:00;;;;;;;4.32;2.50;;;29.30;62.90;;;;;;6181594;28;20518;-77
2023/09/30 11:20:06;;;;;;;5.40;2.00;;;29.00;61.80;;;;;;6181887;28;20453;-78
2023/09/30 11:23:11;;;;;;;4.70;2.20;;;28.20;62.50;;;;;;6178354;28;20043;-77
2023/09/30 11:26:31;;;;;;;4.80;3.53;;;28.00;62.80;;;;;;6177027;28;20046;-78
2023/09/30 11:29:33;;;;;;;4.00;2.25;;;27.90;62.90;;;;;;6180309;28;20047;-78
2023/09/30 11:32:34;;;;;;;8.43;4.10;;;28.30;62.80;;;;;;6178981;28;20051;-77
2023/09/30 11:35:38;;;;;;;5.75;3.28;;;28.40;62.20;;;;;;6176975;28;20053;-77
2023/09/30 11:38:46;;;;;;;3.45;2.65;;;28.20;62.10;;;;;;6178978;28;20050;-78
2023/09/30 11:41:47;;;;;;;7.63;3.10;;;27.90;62.10;;;;;;6186710;28;20412;-78
2023/09/30 11:44:50;;;;;;;4.85;2.80;;;27.50;62.80;;;;;;6187190;28;20060;-78
2023/09/30 11:47:51;;;;;;;3.97;2.58;;;27.10;63.10;;;;;;6183499;28;20043;-79
2023/09/30 11:50:56;;;;;;;5.95;2.65;;;27.00;63.50;;;;;;6179980;28;20526;-79
2023/09/30 11:53:58;;;;;;;7.28;2.67;;;27.00;63.40;;;;;;6182415;28;20051;-78
2023/09/30 11:57:01;;;;;;;5.57;2.72;;;26.90;63.00;;;;;;6179600;28;20496;-78
2023/09/30 12:00:13;;;;;;;4.13;2.00;;;26.60;63.50;;;;;;6180894;28;20071;-77
2023/09/30 12:03:14;;;;;;;4.95;2.42;;;26.50;63.50;;;;;;6172545;28;20051;-78
2023/09/30 12:06:17;;;;;;;3.83;2.22;;;26.60;63.60;;;;;;6173819;28;20043;-78
2023/09/30 12:09:22;;;;;;;6.22;3.00;;;26.90;62.50;;;;;;6174731;28;20042;-78
2023/09/30 12:12:25;;;;;;;3.83;2.70;;;27.10;62.60;;;;;;6174524;28;20136;-78
2023/09/30 12:15:26;;;;;;;2.42;1.77;;;27.60;62.30;;;;;;6173662;28;20050;-78
2023/09/30 12:18:28;;;;;;;3.05;1.52;;;28.00;61.50;;;;;;6174978;28;20047;-78
2023/09/30 12:21:31;;;;;;;6.53;3.00;;;28.40;60.80;;;;;;6165968;28;20053;-78
2023/09/30 12:24:33;;;;;;;6.18;2.80;;;28.70;60.10;;;;;;6174528;28;20061;-78
2023/09/30 12:27:35;;;;;;;3.97;3.03;;;29.10;59.40;;;;;;6174126;28;20419;-78
2023/09/30 12:30:37;;;;;;;4.55;2.55;;;29.40;58.80;;;;;;6177489;28;20066;-78
2023/09/30 12:33:38;;;;;;;6.10;2.72;;;29.50;58.00;;;;;;6175912;28;20066;-78
2023/09/30 12:36:42;;;;;;;3.88;2.67;;;29.40;58.10;;;;;;6175096;28;20051;-78
2023/09/30 12:39:44;;;;;;;5.97;2.67;;;29.60;57.70;;;;;;6172751;28;20046;-78
2023/09/30 12:42:47;;;;;;;4.20;2.30;;;29.80;57.30;;;;;;6172521;28;20051;-78
2023/09/30 12:45:49;;;;;;;5.18;2.58;;;30.10;56.80;;;;;;6172896;28;20046;-78
2023/09/30 12:48:50;;;;;;;5.53;2.40;;;30.40;55.80;;;;;;6177952;28;20500;-78
2023/09/30 12:51:53;;;;;;;5.05;2.67;;;30.50;54.80;;;;;;6178473;28;20508;-77
2023/09/30 12:54:55;;;;;;;4.95;2.58;;;30.60;53.90;;;;;;6177713;28;20051;-78
2023/09/30 12:57:57;;;;;;;4.28;2.90;;;30.40;54.10;;;;;;6177739;28;20512;-78
2023/09/30 13:00:58;;;;;;;5.38;3.25;;;30.30;53.20;;;;;;6177404;28;20050;-78
2023/09/30 13:04:00;;;;;;;4.43;1.98;;;29.90;53.40;;;;;;6177430;28;20054;-78
2023/09/30 13:07:03;;;;;;;8.95;2.00;;;30.00;53.10;;;;;;6176967;28;20356;-78
2023/09/30 13:10:07;;;;;;;5.00;2.30;;;30.20;52.40;;;;;;6177669;28;20069;-78
2023/09/30 13:13:09;;;;;;;5.70;3.15;;;30.50;51.90;;;;;;6178280;28;20051;-78
2023/09/30 13:16:12;;;;;;;5.40;2.55;;;30.60;50.80;;;;;;6184826;28;20069;-78
2023/09/30 13:19:15;;;;;;;4.07;2.88;;;30.70;50.60;;;;;;6177870;28;20051;-78
2023/09/30 13:22:19;;;;;;;6.55;2.50;;;30.90;50.50;;;;;;6177284;28;20058;-78
2023/09/30 13:25:20;;;;;;;6.57;3.45;;;31.00;50.00;;;;;;6176559;28;20067;-78
2023/09/30 13:28:22;;;;;;;6.32;3.28;;;30.80;48.90;;;;;;6177365;28;20055;-78
2023/09/30 13:31:24;;;;;;;8.85;3.40;;;30.60;48.70;;;;;;6177169;28;20420;-78
2023/09/30 13:34:26;;;;;;;6.07;3.42;;;30.50;48.30;;;;;;6176440;28;20069;-78
2023/09/30 13:37:32;;;;;;;6.28;3.08;;;30.20;48.40;;;;;;6177169;28;20496;-78
2023/09/30 13:40:34;;;;;;;10.65;3.72;;;30.10;48.20;;;;;;6177129;28;20055;-78
2023/09/30 13:43:36;;;;;;;5.65;2.72;;;29.90;48.50;;;;;;6173596;28;20527;-78
2023/09/30 13:46:38;;;;;;;8.95;3.63;;;29.70;49.00;;;;;;6178617;28;20118;-78
2023/09/30 13:49:39;;;;;;;7.40;3.38;;;29.50;49.20;;;;;;6179423;28;20035;-79
2023/09/30 13:52:43;;;;;;;5.03;2.67;;;29.20;49.60;;;;;;6182753;28;20061;-78
2023/09/30 13:55:45;;;;;;;8.65;2.78;;;29.10;50.20;;;;;;6181194;28;20138;-78
2023/09/30 13:58:48;;;;;;;5.32;2.97;;;29.20;50.20;;;;;;6177323;28;20050;-77
2023/09/30 14:01:50;;;;;;;5.47;2.80;;;29.00;50.10;;;;;;6175209;28;20527;-77
2023/09/30 14:04:53;;;;;;;7.32;3.47;;;28.80;50.20;;;;;;6172464;28;20059;-77
2023/09/30 14:07:56;;;;;;;6.03;2.90;;;28.60;50.30;;;;;;6182478;28;20540;-77
2023/09/30 14:10:58;;;;;;;7.00;3.15;;;28.30;50.20;;;;;;6178078;28;20465;-79
2023/09/30 14:14:00;;;;;;;5.60;2.72;;;27.90;51.00;;;;;;6180647;28;20415;-77
2023/09/30 14:17:07;;;;;;;5.95;3.42;;;27.90;51.40;;;;;;6177536;28;20361;-75
2023/09/30 14:20:12;;;;;;;8.20;3.42;;;28.10;51.20;;;;;;6176909;28;20042;-77
2023/09/30 14:23:15;;;;;;;7.93;4.60;;;28.20;51.10;;;;;;6176664;28;20130;-77
2023/09/30 14:26:16;;;;;;;6.57;3.35;;;28.20;51.20;;;;;;6175285;28;20058;-77
2023/09/30 14:29:18;;;;;;;5.45;2.88;;;28.30;51.30;;;;;;6176720;28;20124;-76
2023/09/30 14:32:20;;;;;;;5.45;3.08;;;28.30;51.10;;;;;;6173497;28;20057;-77
2023/09/30 14:35:21;;;;;;;9.32;3.97;;;28.30;51.10;;;;;;6177069;28;20124;-77
2023/09/30 14:38:25;;;;;;;6.75;3.88;;;28.40;51.20;;;;;;6174985;28;20389;-77
2023/09/30 14:41:27;;;;;;;6.28;3.85;;;28.30;50.80;;;;;;6175570;28;20050;-77
2023/09/30 14:44:28;;;;;;;6.53;3.10;;;27.90;50.50;;;;;;6175347;28;20496;-77
2023/09/30 14:47:30;;;;;;;5.55;3.25;;;27.30;51.10;;;;;;6174982;28;20061;-77
2023/09/30 14:50:32;;;;;;;6.32;3.67;;;27.00;51.70;;;;;;6174607;28;20046;-77
2023/09/30 14:53:35;;;;;;;8.20;3.63;;;26.70;52.20;;;;;;6174584;28;20047;-77
2023/09/30 14:56:37;;;;;;;8.07;3.40;;;26.50;52.70;;;;;;6174951;28;20057;-77
2023/09/30 14:59:39;;;;;;;8.38;3.50;;;26.30;53.40;;;;;;6167319;28;20054;-78
2023/09/30 15:02:41;;;;;;;8.65;4.82;;;26.20;53.50;;;;;;6175051;28;20043;-77
2023/09/30 15:05:42;;;;;;;6.75;4.13;;;26.00;53.50;;;;;;6174083;28;20047;-77
2023/09/30 15:08:45;;;;;;;9.40;4.65;;;25.80;53.40;;;;;;6180300;28;20053;-77
2023/09/30 15:11:47;;;;;;;9.20;3.67;;;25.70;53.50;;;;;;6173834;28;20050;-77
2023/09/30 15:14:49;;;;;;;7.78;3.35;;;25.50;54.10;;;;;;6173498;28;20047;-77
2023/09/30 15:17:52;;;;;;;10.00;3.70;;;25.30;54.60;;;;;;6173967;28;20147;-77
2023/09/30 15:20:54;;;;;;;8.35;3.85;;;25.20;55.20;;;;;;6203354;23;20138;-76
2023/09/30 15:24:02;;;;;;;6.80;3.47;;;25.00;55.40;;;;;;6195134;28;20058;-77
2023/09/30 15:27:04;;;;;;;6.72;3.83;;;24.80;56.40;;;;;;6197763;28;20042;-76
2023/09/30 15:30:07;;;;;;;10.13;5.78;;;24.70;56.60;;;;;;6197499;28;20052;-76
2023/09/30 15:33:09;;;;;;;6.70;2.78;;;24.50;57.10;;;;;;6197466;28;20082;-76
2023/09/30 15:36:11;;;;;;;8.38;4.07;;;24.40;57.50;;;;;;6197747;28;20038;-76
2023/09/30 15:39:15;;;;;;;5.55;3.53;;;24.20;57.80;;;;;;6199119;28;20038;-76
2023/09/30 15:42:17;;;;;;;5.00;2.67;;;24.00;57.50;;;;;;6197348;28;20431;-76
2023/09/30 15:45:23;;;;;;;8.55;5.32;;;23.70;57.80;;;;;;6197284;28;20185;-76
2023/09/30 15:48:25;;;;;;;9.32;3.40;;;23.50;59.00;;;;;;6200358;28;20045;-76
2023/09/30 15:51:27;;;;;;;6.50;2.88;;;23.30;59.20;;;;;;6185837;28;20047;-76
2023/09/30 15:54:31;;;;;;;6.22;3.55;;;23.20;59.80;;;;;;6195588;28;20046;-76